Terminal Aerodrome Forecast
Issued by NWS

Current Version | Previous Version | Text Only | Print | Product List | Glossary On
Versions: 1 2 3 4 5 6 7 8 9 10 11 12 13 14 15 16 17 18
000
FTUS42 KFFC 272320
TAFPDK
TAF
KPDK 272320Z 2800/2824 32010KT P6SM BKN040
     FM280600 32005KT P6SM SCT040
     FM281200 30005KT P6SM SKC
     FM282100 25006KT P6SM SKC=

USA.gov is the U.S. government's official web portal to all federal, state and local government web resources and services.